Bookmark and Share
Track history (hours):
 

Star Epsilon

Last reported at 2014-Apr-25 03:03 UTC. Time now 2014-Apr-25 05:58 UTC.
Position N 39°03' E 117°46'.

Length 189 m; draft 9 m.

Type: Cargo ship. MMSI: 538003043.

NotesDate/timePositionNaut miles runAvg speedWind from/ knotsBaromVisibWave heightAir tempDewpointWater temp
2014-Apr-25 03:03N 39°03' E 117°46'0 0.0
2014-Apr-25 02:33N 39°03' E 117°46'0 0.0
2014-Apr-25 01:33N 39°03' E 117°46'0 0.0
2014-Apr-25 00:09N 39°03' E 117°46'0 0.0
2014-Apr-24 23:03N 39°03' E 117°46'0 0.0
2014-Apr-24 22:33N 39°03' E 117°46'0 0.0
2014-Apr-24 21:33N 39°03' E 117°46'0 0.0
2014-Apr-24 20:33N 39°03' E 117°46'0 0.0
2014-Apr-24 19:15N 39°03' E 117°46'0 0.0
2014-Apr-24 18:15N 39°03' E 117°46'0 0.0
2014-Apr-24 17:27N 39°03' E 117°46'0 0.0
2014-Apr-24 16:10N 39°03' E 117°46'3 4.7
2014-Apr-24 15:33N 39°00' E 117°47'12 9.5
2014-Apr-24 14:20N 38°56' E 118°01'9 7.3
2014-Apr-24 13:08N 38°54' E 118°12'  
2014-Apr-21 10:29N 38°42' E 119°18'79 9.9
2014-Apr-21 02:31N 37°39' E 120°18'0 0.0
2014-Apr-21 00:31N 37°39' E 120°18'0 0.0
2014-Apr-20 22:13N 37°39' E 120°18'0 0.0
2014-Apr-20 21:10N 37°39' E 120°18'0 0.0
2014-Apr-20 20:31N 37°39' E 120°18'0 0.0
2014-Apr-20 19:28N 37°39' E 120°18'0 0.0
2014-Apr-20 17:31N 37°39' E 120°18'0 0.0
2014-Apr-20 16:31N 37°39' E 120°18'0 0.0
2014-Apr-20 15:31N 37°39' E 120°18'0 0.0
2014-Apr-20 14:28N 37°39' E 120°18'0 0.0
2014-Apr-20 13:31N 37°39' E 120°18'0 0.0
2014-Apr-20 12:22N 37°39' E 120°18'0 0.0
2014-Apr-20 11:31N 37°39' E 120°18'0 0.0
2014-Apr-20 10:13N 37°39' E 120°18'0 0.0
2014-Apr-20 09:31N 37°39' E 120°18'0 0.0
2014-Apr-20 08:25N 37°39' E 120°18'0 0.0
2014-Apr-20 06:31N 37°39' E 120°18'0 0.0
2014-Apr-20 05:04N 37°39' E 120°18'0 0.0
2014-Apr-20 04:31N 37°39' E 120°18'0 0.0
2014-Apr-20 03:31N 37°39' E 120°18'0 0.0
2014-Apr-20 02:07N 37°39' E 120°18'0 0.0
2014-Apr-20 01:28N 37°39' E 120°18'0 0.0
2014-Apr-19 23:28N 37°39' E 120°18'0 0.0
2014-Apr-19 22:16N 37°39' E 120°18'0 0.0
2014-Apr-19 15:16N 37°39' E 120°18'0 0.1
2014-Apr-19 14:28N 37°39' E 120°18'0 0.1
2014-Apr-19 13:22N 37°39' E 120°18'0 0.0
2014-Apr-19 11:19N 37°39' E 120°18'0 0.0
2014-Apr-19 10:22N 37°39' E 120°18'0 0.0
2014-Apr-19 09:10N 37°39' E 120°18'0 0.0
2014-Apr-19 07:04N 37°39' E 120°18'0 0.0
2014-Apr-19 05:28N 37°39' E 120°18'0 0.0
2014-Apr-19 04:07N 37°39' E 120°18'0 0.0
2014-Apr-19 03:28N 37°39' E 120°18'0 0.0
2014-Apr-19 02:04N 37°39' E 120°18'0 0.0
2014-Apr-19 01:16N 37°39' E 120°18'0 0.0
2014-Apr-19 00:28N 37°39' E 120°18'0 0.0
2014-Apr-18 21:28N 37°39' E 120°18'0 0.0
2014-Apr-18 20:10N 37°39' E 120°18'0 0.0
2014-Apr-18 19:22N 37°39' E 120°18'0 0.0
2014-Apr-18 18:31N 37°39' E 120°18'0 0.0
2014-Apr-18 17:04N 37°39' E 120°18'0 0.0
2014-Apr-18 16:16N 37°39' E 120°18'0 0.0
2014-Apr-18 15:13N 37°39' E 120°18'0 0.0
2014-Apr-18 14:19N 37°39' E 120°18'0 0.0
2014-Apr-18 10:25N 37°39' E 120°18'0 0.0
2014-Apr-18 09:19N 37°39' E 120°18'0 0.0
2014-Apr-18 08:31N 37°39' E 120°18'0 0.0
2014-Apr-18 07:16N 37°39' E 120°18'0 0.0
2014-Apr-18 06:22N 37°39' E 120°18'0 0.0
2014-Apr-18 05:22N 37°39' E 120°18'0 0.0
2014-Apr-18 04:10N 37°39' E 120°18'0 0.0
2014-Apr-18 03:28N 37°39' E 120°18'0 0.0
2014-Apr-18 02:28N 37°39' E 120°18'0 0.0
2014-Apr-18 00:16N 37°39' E 120°18'0 0.0
2014-Apr-17 19:16N 37°39' E 120°18'0 0.0
2014-Apr-17 18:22N 37°39' E 120°18'0 0.0
2014-Apr-17 16:28N 37°39' E 120°18'0 0.0
2014-Apr-17 15:31N 37°39' E 120°18'0 0.0
2014-Apr-17 13:19N 37°39' E 120°18'0 0.0
2014-Apr-17 09:10N 37°39' E 120°18'0 0.0
2014-Apr-17 08:04N 37°39' E 120°18'0 0.0
2014-Apr-17 07:07N 37°39' E 120°18'0 0.0
2014-Apr-17 06:22N 37°39' E 120°18'0 0.0
2014-Apr-17 03:22N 37°39' E 120°18'0 0.0
2014-Apr-17 02:31N 37°39' E 120°18'0 0.0
2014-Apr-16 23:28N 37°39' E 120°18'0 0.0
2014-Apr-16 22:22N 37°39' E 120°18'0 0.0
2014-Apr-16 21:28N 37°39' E 120°18'0 0.0
2014-Apr-16 20:22N 37°39' E 120°18'0 0.0
2014-Apr-16 19:28N 37°39' E 120°18'0 0.0
2014-Apr-16 18:28N 37°39' E 120°18'0 0.0
2014-Apr-16 17:31N 37°39' E 120°18'0 0.0
2014-Apr-16 16:22N 37°39' E 120°18'0 0.0
2014-Apr-16 15:28N 37°39' E 120°18'0 0.0
2014-Apr-16 14:13N 37°39' E 120°18'0 0.0
2014-Apr-16 13:28N 37°39' E 120°18'0 0.0
2014-Apr-16 11:25N 37°39' E 120°18'0 0.0
2014-Apr-16 10:22N 37°39' E 120°18'0 0.0
2014-Apr-16 09:22N 37°39' E 120°18'0 0.0
2014-Apr-16 08:16N 37°39' E 120°18'0 0.1
2014-Apr-16 07:22N 37°39' E 120°18'0 0.0
2014-Apr-16 06:28N 37°39' E 120°18'0 0.0
2014-Apr-16 05:28N 37°39' E 120°18'0 0.0
2014-Apr-16 04:28N 37°39' E 120°18'0 0.0
2014-Apr-16 01:25N 37°39' E 120°18'0 0.0
2014-Apr-16 00:22N 37°39' E 120°18'0 0.0
2014-Apr-15 20:10N 37°39' E 120°18'0 0.0
2014-Apr-15 19:07N 37°39' E 120°18'0 0.0
2014-Apr-15 16:08N 37°39' E 120°18'0 0.0
2014-Apr-15 10:32N 37°39' E 120°18'  

Dump ship's entire track history

sailing weather and tide predictions

Star Epsilon — V7NZ7 — position and weather